createdAt,value
2018-09-06T00:01:35.350Z,98439.49
2018-09-06T00:04:03.529Z,98439.88
2018-09-06T00:06:31.695Z,98439.31
2018-09-06T00:09:02.923Z,98437.47
2018-09-06T00:11:31.045Z,98436.58
2018-09-06T00:13:59.311Z,98439.52
2018-09-06T00:16:27.433Z,98435.11
2018-09-06T00:18:55.545Z,98430.84
2018-09-06T00:21:23.642Z,98433.99
2018-09-06T00:23:51.764Z,98430.77
2018-09-06T00:26:19.872Z,98431.86
2018-09-06T00:28:48.012Z,98432.71
2018-09-06T00:31:16.115Z,98436.84
2018-09-06T00:33:44.208Z,98430.97
2018-09-06T00:36:12.301Z,98438.08
2018-09-06T00:38:40.384Z,98431.11
2018-09-06T00:41:08.511Z,98426.33
2018-09-06T00:43:37.263Z,98432.06
2018-09-06T00:46:05.756Z,98423.55
2018-09-06T00:48:33.819Z,98428.58
2018-09-06T00:51:01.943Z,98428.00
2018-09-06T00:53:30.412Z,98428.16
2018-09-06T00:55:58.497Z,98429.66
2018-09-06T00:58:26.599Z,98427.34
2018-09-06T01:00:54.675Z,98436.48
2018-09-06T01:03:22.763Z,98434.89
2018-09-06T01:05:50.876Z,98436.72
2018-09-06T01:08:18.946Z,98435.73
2018-09-06T01:10:47.018Z,98431.41
2018-09-06T01:13:15.180Z,98431.72
2018-09-06T01:15:43.267Z,98430.25
2018-09-06T01:18:11.372Z,98428.74
2018-09-06T01:20:39.433Z,98420.61
2018-09-06T01:23:07.511Z,98420.61
2018-09-06T01:25:40.880Z,98415.30
2018-09-06T01:28:08.964Z,98412.45
2018-09-06T01:30:37.074Z,98403.73
2018-09-06T01:33:05.167Z,98397.90
2018-09-06T01:35:33.248Z,98399.73
2018-09-06T01:38:01.830Z,98394.94
2018-09-06T01:40:29.903Z,98396.75
2018-09-06T01:42:58.004Z,98396.09
2018-09-06T01:45:26.168Z,98400.45
2018-09-06T01:47:54.316Z,98395.64
2018-09-06T01:50:22.475Z,98405.11
2018-09-06T01:52:50.547Z,98390.51
2018-09-06T01:55:18.707Z,98388.55
2018-09-06T01:57:46.775Z,98386.08
2018-09-06T02:00:15.258Z,98385.56
2018-09-06T02:02:43.636Z,98386.89
2018-09-06T02:05:15.363Z,98384.65
2018-09-06T02:07:43.452Z,98392.62
2018-09-06T02:10:11.510Z,98391.95
2018-09-06T02:12:39.585Z,98396.42
2018-09-06T02:15:07.702Z,98394.77
2018-09-06T02:17:35.822Z,98389.61
2018-09-06T02:20:04.579Z,98392.78
2018-09-06T02:22:33.279Z,98386.99
2018-09-06T02:25:01.779Z,98391.95
2018-09-06T02:27:29.873Z,98387.66
2018-09-06T02:29:57.963Z,98385.98
2018-09-06T02:32:26.043Z,98380.84
2018-09-06T02:34:54.221Z,98384.69
2018-09-06T02:37:22.396Z,98382.35
2018-09-06T02:39:50.470Z,98384.16
2018-09-06T02:42:18.933Z,98383.95
2018-09-06T02:44:47.003Z,98371.08
2018-09-06T02:47:15.095Z,98369.93
2018-09-06T02:49:48.466Z,98368.60
2018-09-06T02:52:16.616Z,98367.63
2018-09-06T02:54:44.704Z,98372.09
2018-09-06T02:57:12.786Z,98371.42
2018-09-06T02:59:48.444Z,98366.64
2018-09-06T03:02:16.518Z,98366.47
2018-09-06T03:04:44.656Z,98367.16
2018-09-06T03:07:12.749Z,98365.11
2018-09-06T03:09:41.226Z,98369.61
2018-09-06T03:12:10.208Z,98367.15
2018-09-06T03:14:38.258Z,98362.48
2018-09-06T03:17:06.378Z,98364.13
2018-09-06T03:19:35.331Z,98365.46
2018-09-06T03:22:03.464Z,98365.14
2018-09-06T03:24:31.681Z,98357.53
2018-09-06T03:26:59.766Z,98355.83
2018-09-06T03:29:27.850Z,98352.84
2018-09-06T03:31:55.920Z,98354.84
2018-09-06T03:34:24.114Z,98353.52
2018-09-06T03:36:52.399Z,98350.22
2018-09-06T03:39:21.188Z,98347.87
2018-09-06T03:41:49.259Z,98342.58
2018-09-06T03:44:17.352Z,98339.27
2018-09-06T03:46:45.426Z,98338.12
2018-09-06T03:49:14.587Z,98335.02
2018-09-06T03:51:42.854Z,98341.79
2018-09-06T03:54:10.930Z,98334.81
2018-09-06T03:56:38.998Z,98327.52
2018-09-06T03:59:07.165Z,98335.48
2018-09-06T04:01:35.223Z,98333.00
2018-09-06T04:04:03.298Z,98339.25
2018-09-06T04:06:31.372Z,98336.39
2018-09-06T04:08:59.492Z,98340.39
2018-09-06T04:11:27.644Z,98341.75
2018-09-06T04:13:55.729Z,98339.80
2018-09-06T04:16:23.962Z,98340.12
2018-09-06T04:18:52.043Z,98335.16
2018-09-06T04:21:20.163Z,98341.30
2018-09-06T04:23:48.249Z,98339.95
2018-09-06T04:26:16.619Z,98340.78
2018-09-06T04:28:44.699Z,98340.61
2018-09-06T04:31:12.782Z,98345.23
2018-09-06T04:33:41.066Z,98339.27
2018-09-06T04:36:09.747Z,98343.22
2018-09-06T04:38:38.239Z,98341.25
2018-09-06T04:41:06.343Z,98333.30
2018-09-06T04:43:34.442Z,98327.67
2018-09-06T04:46:02.529Z,98327.73
2018-09-06T04:48:30.630Z,98325.70
2018-09-06T04:50:58.742Z,98320.75
2018-09-06T04:53:26.820Z,98311.79
2018-09-06T04:55:54.951Z,98313.42
2018-09-06T04:58:23.060Z,98308.12
2018-09-06T05:00:51.134Z,98310.55
2018-09-06T05:03:19.572Z,98314.88
2018-09-06T05:05:47.663Z,98325.00
2018-09-06T05:08:15.960Z,98323.85
2018-09-06T05:10:44.038Z,98322.22
2018-09-06T05:13:12.097Z,98321.41
2018-09-06T05:15:40.198Z,98324.20
2018-09-06T05:18:08.275Z,98321.06
2018-09-06T05:20:36.467Z,98326.38
2018-09-06T05:23:05.115Z,98321.23
2018-09-06T05:25:33.319Z,98320.58
2018-09-06T05:28:01.435Z,98315.91
2018-09-06T05:30:29.537Z,98311.44
2018-09-06T05:32:57.737Z,98308.13
2018-09-06T05:35:25.962Z,98307.11
2018-09-06T05:37:54.063Z,98309.09
2018-09-06T05:40:22.163Z,98311.55
2018-09-06T05:42:50.288Z,98306.84
2018-09-06T05:45:18.730Z,98316.88
2018-09-06T05:47:51.011Z,98318.82
2018-09-06T05:50:19.104Z,98314.31
2018-09-06T05:52:47.208Z,98316.87
2018-09-06T05:55:15.308Z,98305.84
2018-09-06T05:57:43.402Z,98304.19
2018-09-06T06:00:17.048Z,98297.75
2018-09-06T06:02:45.135Z,98301.25
2018-09-06T06:05:13.334Z,98297.70
2018-09-06T06:07:53.331Z,98302.17
2018-09-06T06:10:21.431Z,98304.23
2018-09-06T06:12:49.547Z,98305.52
2018-09-06T06:15:17.965Z,98305.59
2018-09-06T06:17:46.086Z,98304.45
2018-09-06T06:20:14.196Z,98302.73
2018-09-06T06:22:43.114Z,98313.80
2018-09-06T06:25:11.215Z,98307.33
2018-09-06T06:27:39.323Z,98302.05
2018-09-06T06:30:07.926Z,98306.78
2018-09-06T06:32:36.043Z,98304.84
2018-09-06T06:35:04.488Z,98308.23
2018-09-06T06:37:32.879Z,98302.44
2018-09-06T06:40:01.313Z,98301.52
2018-09-06T06:42:29.416Z,98301.48
2018-09-06T06:44:57.542Z,98303.50
2018-09-06T06:47:26.303Z,98297.22
2018-09-06T06:49:54.382Z,98293.25
2018-09-06T06:52:22.475Z,98295.59
2018-09-06T06:54:50.667Z,98294.75
2018-09-06T06:57:18.751Z,98301.09
2018-09-06T06:59:46.847Z,98303.58
2018-09-06T07:02:14.959Z,98303.31
2018-09-06T07:04:43.053Z,98298.70
2018-09-06T07:07:11.177Z,98303.31
2018-09-06T07:09:39.208Z,98299.58
2018-09-06T07:12:07.298Z,98293.16
2018-09-06T07:14:35.394Z,98295.69
2018-09-06T07:17:03.559Z,98288.70
2018-09-06T07:19:31.645Z,98297.48
2018-09-06T07:21:59.720Z,98296.20
2018-09-06T07:24:27.808Z,98294.28
2018-09-06T07:26:55.900Z,98300.16
2018-09-06T07:29:24.001Z,98298.85
2018-09-06T07:31:52.097Z,98292.91
2018-09-06T07:34:20.256Z,98295.86
2018-09-06T07:36:48.363Z,98290.60
2018-09-06T07:39:16.507Z,98297.25
2018-09-06T07:41:44.837Z,98296.45
2018-09-06T07:44:12.939Z,98300.13
2018-09-06T07:46:41.317Z,98303.70
2018-09-06T07:49:09.437Z,98296.66
2018-09-06T07:51:37.546Z,98290.83
2018-09-06T07:54:05.719Z,98295.85
2018-09-06T07:56:33.846Z,98291.90
2018-09-06T07:59:01.966Z,98291.57
2018-09-06T08:01:30.084Z,98290.14
2018-09-06T08:03:58.189Z,98295.59
2018-09-06T08:06:26.283Z,98291.59
2018-09-06T08:08:54.596Z,98297.27
2018-09-06T08:11:23.039Z,98291.69
2018-09-06T08:13:51.167Z,98292.19
2018-09-06T08:16:19.273Z,98298.09
2018-09-06T08:18:47.555Z,98294.89
2018-09-06T08:21:15.642Z,98296.10
2018-09-06T08:23:43.786Z,98292.58
2018-09-06T08:26:11.931Z,98293.50
2018-09-06T08:28:40.365Z,98290.69
2018-09-06T08:31:08.569Z,98286.32
2018-09-06T08:33:36.566Z,98288.09
2018-09-06T08:36:05.868Z,98282.75
2018-09-06T08:38:33.938Z,98288.02
2018-09-06T08:41:02.125Z,98282.34
2018-09-06T08:43:30.228Z,98287.97
2018-09-06T08:45:58.339Z,98288.87
2018-09-06T08:48:26.447Z,98287.03
2018-09-06T08:50:54.532Z,98282.38
2018-09-06T08:53:22.638Z,98278.00
2018-09-06T08:55:50.983Z,98278.29
2018-09-06T08:58:19.286Z,98275.83
2018-09-06T09:00:52.601Z,98281.36
2018-09-06T09:03:20.700Z,98279.53
2018-09-06T09:05:49.640Z,98275.97
2018-09-06T09:08:17.768Z,98273.30
2018-09-06T09:10:45.840Z,98270.87
2018-09-06T09:13:13.919Z,98267.08
2018-09-06T09:15:42.219Z,98259.77
2018-09-06T09:18:10.295Z,98256.23
2018-09-06T09:20:38.464Z,98258.44
2018-09-06T09:23:06.545Z,98261.02
2018-09-06T09:25:34.707Z,98254.29
2018-09-06T09:28:02.726Z,98256.60
2018-09-06T09:30:30.836Z,98249.86
2018-09-06T09:32:59.152Z,98252.02
2018-09-06T09:35:27.274Z,98254.16
2018-09-06T09:37:55.382Z,98252.41
2018-09-06T09:40:23.533Z,98248.63
2018-09-06T09:42:51.999Z,98247.41
2018-09-06T09:45:20.110Z,98233.38
2018-09-06T09:47:48.233Z,98231.30
2018-09-06T09:52:43.723Z,98234.16
2018-09-06T09:55:11.865Z,98231.76
2018-09-06T09:57:39.963Z,98233.16
2018-09-06T10:00:08.062Z,98230.35
2018-09-06T10:02:41.510Z,98225.70
2018-09-06T10:06:17.341Z,98224.77
2018-09-06T10:08:50.888Z,98215.31
2018-09-06T10:11:19.274Z,98215.05
2018-09-06T10:13:47.423Z,98213.98
2018-09-06T10:16:15.542Z,98214.34
2018-09-06T10:18:43.688Z,98204.19
2018-09-06T10:21:11.796Z,98204.78
2018-09-06T10:23:39.885Z,98196.66
2018-09-06T10:26:08.007Z,98191.70
2018-09-06T10:28:36.117Z,98188.39
2018-09-06T10:31:04.257Z,98189.25
2018-09-06T10:33:32.366Z,98189.23
2018-09-06T10:36:00.475Z,98183.25
2018-09-06T10:38:28.574Z,98188.16
2018-09-06T10:40:56.680Z,98187.67
2018-09-06T10:43:24.802Z,98188.02
2018-09-06T10:45:54.650Z,98190.62
2018-09-06T10:48:24.024Z,98184.09
2018-09-06T10:50:52.359Z,98181.39
2018-09-06T10:53:20.722Z,98186.18
2018-09-06T10:55:48.834Z,98181.02
2018-09-06T10:58:16.922Z,98185.47
2018-09-06T11:00:46.452Z,98172.92
2018-09-06T11:03:14.427Z,98159.92
2018-09-06T11:05:42.530Z,98166.69
2018-09-06T11:08:10.638Z,98162.16
2018-09-06T11:10:38.675Z,98167.06
2018-09-06T11:13:06.764Z,98169.30
2018-09-06T11:15:34.823Z,98165.63
2018-09-06T11:18:03.012Z,98158.17
2018-09-06T11:20:31.205Z,98159.66
2018-09-06T11:22:59.273Z,98167.25
2018-09-06T11:25:27.764Z,98170.47
2018-09-06T11:27:55.922Z,98166.22
2018-09-06T11:30:24.847Z,98169.17
2018-09-06T11:32:52.938Z,98163.53
2018-09-06T11:35:21.051Z,98166.47
2018-09-06T11:37:49.141Z,98151.61
2018-09-06T11:40:17.249Z,98149.13
2018-09-06T11:42:45.322Z,98148.58
2018-09-06T11:45:13.427Z,98151.94
2018-09-06T11:47:41.587Z,98155.81
2018-09-06T11:50:09.586Z,98153.06
2018-09-06T11:52:37.652Z,98150.03
2018-09-06T11:55:05.737Z,98153.63
2018-09-06T11:57:33.807Z,98143.69
2018-09-06T12:00:01.937Z,98154.91
2018-09-06T12:02:30.031Z,98154.91
2018-09-06T12:04:58.127Z,98155.19
2018-09-06T12:07:26.186Z,98144.75
2018-09-06T12:09:54.273Z,98142.83
2018-09-06T12:12:22.372Z,98133.69
2018-09-06T12:14:50.451Z,98141.33
2018-09-06T12:17:18.537Z,98144.30
2018-09-06T12:19:46.607Z,98140.64
2018-09-06T12:22:14.700Z,98132.85
2018-09-06T12:24:43.063Z,98122.69
2018-09-06T12:27:11.523Z,98124.73
2018-09-06T12:29:39.611Z,98113.86
2018-09-06T12:32:08.227Z,98125.00
2018-09-06T12:34:36.343Z,98124.58
2018-09-06T12:37:08.440Z,98124.39
2018-09-06T12:39:36.519Z,98120.21
2018-09-06T12:42:04.584Z,98116.61
2018-09-06T12:44:32.655Z,98107.83
2018-09-06T12:47:00.796Z,98109.48
2018-09-06T12:49:28.988Z,98108.59
2018-09-06T12:51:57.044Z,98110.83
2018-09-06T12:54:25.134Z,98106.48
2018-09-06T12:56:53.208Z,98102.72
2018-09-06T12:59:21.511Z,98101.42
2018-09-06T13:01:49.743Z,98098.49
2018-09-06T13:04:17.832Z,98104.05
2018-09-06T13:06:45.923Z,98103.22
2018-09-06T13:09:13.990Z,98101.81
2018-09-06T13:11:42.071Z,98091.16
2018-09-06T13:14:10.137Z,98091.14
2018-09-06T13:16:38.220Z,98082.99
2018-09-06T13:19:06.284Z,98084.45
2018-09-06T13:21:34.362Z,98080.92
2018-09-06T13:24:02.567Z,98074.61
2018-09-06T13:26:30.647Z,98070.23
2018-09-06T13:28:58.717Z,98065.39
2018-09-06T13:31:26.779Z,98065.20
2018-09-06T13:33:54.942Z,98055.46
2018-09-06T13:36:23.035Z,98048.78
2018-09-06T13:38:51.100Z,98044.69
2018-09-06T13:41:19.210Z,98044.30
2018-09-06T13:43:47.320Z,98043.01
2018-09-06T13:46:15.395Z,98048.71
2018-09-06T13:48:43.462Z,98048.91
2018-09-06T13:51:11.540Z,98049.96
2018-09-06T13:53:39.639Z,98042.67
2018-09-06T13:56:07.722Z,98042.48
2018-09-06T13:58:35.799Z,98039.41
2018-09-06T14:01:03.903Z,98050.23
2018-09-06T14:03:31.963Z,98042.98
2018-09-06T14:06:00.155Z,98041.28
2018-09-06T14:08:29.037Z,98042.33
2018-09-06T14:10:57.121Z,98040.03
2018-09-06T14:13:25.207Z,98037.56
2018-09-06T14:15:53.295Z,98035.92
2018-09-06T14:18:21.379Z,98036.71
2018-09-06T14:20:49.482Z,98022.64
2018-09-06T14:23:17.569Z,98024.94
2018-09-06T14:25:45.653Z,98016.34
2018-09-06T14:28:13.753Z,98007.34
2018-09-06T14:30:41.819Z,98007.54
2018-09-06T14:33:09.918Z,98005.85
2018-09-06T14:35:38.020Z,97998.00
2018-09-06T14:38:07.182Z,97994.24
2018-09-06T14:40:35.232Z,97986.80
2018-09-06T14:43:03.365Z,97978.81
2018-09-06T14:45:31.431Z,97976.41
2018-09-06T14:48:00.646Z,97975.31
2018-09-06T14:50:28.718Z,97973.99
2018-09-06T14:52:56.794Z,97969.61
2018-09-06T14:55:24.863Z,97975.23
2018-09-06T14:57:53.249Z,97974.61
2018-09-06T15:00:21.327Z,97973.57
2018-09-06T15:02:49.458Z,97979.90
2018-09-06T15:05:17.531Z,97982.33
2018-09-06T15:07:45.621Z,97978.28
2018-09-06T15:10:14.027Z,97973.45
2018-09-06T15:12:42.115Z,97971.70
2018-09-06T15:15:10.246Z,97982.06
2018-09-06T15:17:38.337Z,97982.09
2018-09-06T15:20:06.472Z,97988.13
2018-09-06T15:22:34.479Z,97988.98
2018-09-06T15:25:02.587Z,97992.08
2018-09-06T15:27:31.533Z,97996.45
2018-09-06T15:29:59.623Z,98005.77
2018-09-06T15:32:27.728Z,98020.10
2018-09-06T15:34:55.812Z,98046.08
2018-09-06T15:37:23.915Z,98043.23
2018-09-06T15:39:52.011Z,98033.22
2018-09-06T15:42:20.196Z,98042.56
2018-09-06T15:44:48.328Z,98042.01
2018-09-06T15:47:16.420Z,98036.03
2018-09-06T15:49:44.575Z,98018.17
2018-09-06T15:52:13.139Z,98029.28
2018-09-06T15:54:41.231Z,98026.89
2018-09-06T15:57:10.448Z,98028.09
2018-09-06T15:59:38.540Z,98028.73
2018-09-06T16:02:06.643Z,98028.25
2018-09-06T16:07:37.716Z,98041.78
2018-09-06T16:10:05.855Z,98066.36
2018-09-06T16:12:33.890Z,98085.71
2018-09-06T16:15:03.069Z,98087.97
2018-09-06T16:17:31.162Z,98087.96
2018-09-06T16:19:59.247Z,98068.62
2018-09-06T16:22:27.336Z,98075.72
2018-09-06T16:24:55.443Z,98083.52
2018-09-06T16:27:23.522Z,98091.84
2018-09-06T16:29:51.756Z,98105.08
2018-09-06T16:32:19.844Z,98110.36
2018-09-06T16:34:47.945Z,98114.55
2018-09-06T16:37:16.110Z,98125.76
2018-09-06T16:39:44.087Z,98129.56
2018-09-06T16:42:12.217Z,98134.84
2018-09-06T16:44:40.281Z,98144.24
2018-09-06T16:47:08.342Z,98144.22
2018-09-06T16:49:36.714Z,98145.25
2018-09-06T16:52:04.774Z,98143.32
2018-09-06T16:54:32.992Z,98143.72
2018-09-06T16:57:01.082Z,98146.19
2018-09-06T16:59:29.170Z,98153.22
2018-09-06T17:01:57.261Z,98152.19
2018-09-06T17:04:25.368Z,98157.22
2018-09-06T17:06:53.518Z,98149.11
2018-09-06T17:09:22.380Z,98154.48
2018-09-06T17:11:50.438Z,98154.45
2018-09-06T17:14:18.524Z,98166.92
2018-09-06T17:16:47.647Z,98171.98
2018-09-06T17:19:16.594Z,98171.45
2018-09-06T17:21:44.716Z,98170.69
2018-09-06T17:24:13.125Z,98177.03
2018-09-06T17:26:41.195Z,98172.40
2018-09-06T17:29:12.554Z,98163.00
2018-09-06T17:31:40.647Z,98158.95
2018-09-06T17:34:13.942Z,98153.87
2018-09-06T17:36:42.039Z,98156.47
2018-09-06T17:39:12.078Z,98156.95
2018-09-06T17:41:40.167Z,98163.48
2018-09-06T17:44:08.248Z,98165.22
2018-09-06T17:46:36.727Z,98170.74
2018-09-06T17:49:04.870Z,98176.62
2018-09-06T17:51:32.980Z,98176.17
2018-09-06T17:54:01.104Z,98181.34
2018-09-06T17:56:29.235Z,98185.42
2018-09-06T17:58:57.351Z,98191.73
2018-09-06T18:01:34.467Z,98188.51
2018-09-06T18:04:03.325Z,98184.81
2018-09-06T18:06:31.443Z,98186.87
2018-09-06T18:08:59.562Z,98185.16
2018-09-06T18:11:28.458Z,98185.53
2018-09-06T18:13:57.049Z,98191.83
2018-09-06T18:16:25.156Z,98192.31
2018-09-06T18:18:54.321Z,98191.88
2018-09-06T18:21:25.839Z,98198.62
2018-09-06T18:23:54.227Z,98201.09
2018-09-06T18:26:22.324Z,98206.45
2018-09-06T18:28:50.510Z,98208.63
2018-09-06T18:31:18.628Z,98212.05
2018-09-06T18:33:46.763Z,98210.97
2018-09-06T18:36:14.871Z,98219.34
2018-09-06T18:38:43.598Z,98228.17
2018-09-06T18:41:11.698Z,98223.44
2018-09-06T18:43:39.824Z,98232.02
2018-09-06T18:46:08.403Z,98231.58
2018-09-06T18:48:36.887Z,98235.50
2018-09-06T18:51:05.079Z,98231.31
2018-09-06T18:53:33.480Z,98234.24
2018-09-06T18:56:01.636Z,98241.03
2018-09-06T18:58:33.111Z,98240.41
2018-09-06T19:01:01.203Z,98244.88
2018-09-06T19:03:29.355Z,98245.86
2018-09-06T19:05:57.467Z,98245.77
2018-09-06T19:08:25.562Z,98251.48
2018-09-06T19:10:53.670Z,98255.70
2018-09-06T19:13:21.791Z,98255.54
2018-09-06T19:15:50.166Z,98261.50
2018-09-06T19:18:18.286Z,98264.05
2018-09-06T19:20:46.430Z,98260.37
2018-09-06T19:23:14.549Z,98265.05
2018-09-06T19:25:42.650Z,98268.21
2018-09-06T19:28:11.464Z,98262.03
2018-09-06T19:30:40.300Z,98261.73
2018-09-06T19:33:08.378Z,98259.30
2018-09-06T19:35:36.478Z,98257.87
2018-09-06T19:38:04.625Z,98253.85
2018-09-06T19:40:32.904Z,98262.87
2018-09-06T19:43:01.356Z,98265.57
2018-09-06T19:45:29.463Z,98262.65
2018-09-06T19:47:57.575Z,98259.34
2018-09-06T19:50:26.336Z,98254.09
2018-09-06T19:52:54.438Z,98250.33
2018-09-06T19:55:22.559Z,98249.84
2018-09-06T19:57:50.666Z,98253.14
2018-09-06T20:00:18.795Z,98253.09
2018-09-06T20:02:46.924Z,98247.10
2018-09-06T20:05:15.003Z,98248.81
2018-09-06T20:07:43.117Z,98248.81
2018-09-06T20:10:11.909Z,98252.23
2018-09-06T20:12:40.077Z,98240.84
2018-09-06T20:15:08.498Z,98246.67
2018-09-06T20:17:36.591Z,98241.08
2018-09-06T20:20:04.679Z,98241.64
2018-09-06T20:22:32.779Z,98241.64
2018-09-06T20:25:00.881Z,98241.27
2018-09-06T20:27:28.964Z,98245.03
2018-09-06T20:29:57.393Z,98238.57
2018-09-06T20:32:26.476Z,98237.28
2018-09-06T20:34:55.128Z,98239.02
2018-09-06T20:37:23.493Z,98239.56
2018-09-06T20:39:51.564Z,98234.77
2018-09-06T20:42:19.619Z,98237.28
2018-09-06T20:44:47.694Z,98233.33
2018-09-06T20:47:15.787Z,98232.56
2018-09-06T20:49:44.395Z,98230.85
2018-09-06T20:52:12.467Z,98232.19
2018-09-06T20:54:40.540Z,98238.19
2018-09-06T20:57:08.612Z,98241.22
2018-09-06T20:59:36.700Z,98241.07
2018-09-06T21:02:10.031Z,98246.42
2018-09-06T21:04:38.123Z,98248.50
2018-09-06T21:07:06.203Z,98243.52
2018-09-06T21:09:34.278Z,98246.09
2018-09-06T21:12:02.462Z,98242.63
2018-09-06T21:14:31.309Z,98243.83
2018-09-06T21:16:59.320Z,98240.13
2018-09-06T21:19:27.448Z,98234.19
2018-09-06T21:21:55.639Z,98230.59
2018-09-06T21:24:23.740Z,98230.11
2018-09-06T21:26:51.819Z,98222.38
2018-09-06T21:29:19.910Z,98227.88
2018-09-06T21:31:48.047Z,98222.34
2018-09-06T21:34:16.137Z,98224.87
2018-09-06T21:36:44.242Z,98237.22
2018-09-06T21:39:13.271Z,98240.61
2018-09-06T21:41:42.654Z,98246.00
2018-09-06T21:44:11.056Z,98258.30
2018-09-06T21:46:39.487Z,98258.70
2018-09-06T21:49:07.860Z,98259.28
2018-09-06T21:51:35.946Z,98255.39
2018-09-06T21:54:04.035Z,98254.70
2018-09-06T21:56:32.134Z,98261.69
2018-09-06T21:59:00.221Z,98264.66
2018-09-06T22:24:07.727Z,98245.91
2018-09-06T22:26:36.062Z,98242.59
2018-09-06T22:29:04.322Z,98253.16
2018-09-06T22:31:32.635Z,98260.25
2018-09-06T22:34:00.809Z,98255.02
2018-09-06T22:36:28.988Z,98254.76
2018-09-06T22:38:57.115Z,98255.44
2018-09-06T22:41:25.285Z,98261.61
2018-09-06T22:43:53.461Z,98257.16
2018-09-06T22:46:21.733Z,98256.61
2018-09-06T22:48:50.395Z,98256.80
2018-09-06T22:51:20.930Z,98260.75
2018-09-06T22:53:49.291Z,98257.84
2018-09-06T22:56:17.516Z,98254.94
2018-09-06T22:58:45.788Z,98252.95
2018-09-06T23:01:20.776Z,98251.99
2018-09-06T23:03:52.378Z,98253.66
2018-09-06T23:06:20.673Z,98251.50
2018-09-06T23:08:49.592Z,98258.45
2018-09-06T23:11:17.741Z,98258.49
2018-09-06T23:13:45.951Z,98258.02
2018-09-06T23:16:20.611Z,98260.00
2018-09-06T23:18:48.780Z,98266.13
2018-09-06T23:21:16.957Z,98269.95
2018-09-06T23:23:45.150Z,98276.99
2018-09-06T23:26:14.220Z,98274.52
2018-09-06T23:28:42.405Z,98274.32
2018-09-06T23:31:10.596Z,98279.34
2018-09-06T23:33:38.749Z,98276.34
